Wednesday, October 22, 2014, 12:42 AM EDT

KSHD, Staunton / Shenandoah

Location: Weyers Cave, VA, United States Lat: 38.267
Local Time: 12:42 AM EDT ( 4:42 GMT) Lon: -78.9
Time Zone: US/Eastern Elev: 1200 ft

Show me the last for .
Show Decoded

2014-10-22 00:15 METAR KSHD 220415Z AUTO 35004KT 10SM OVC033 11/06 A2996 RMK AO2 T01110060 =
2014-10-21 23:55 METAR KSHD 220355Z AUTO 35004KT 10SM OVC033 11/06 A2997 RMK AO2 T01130058 =
2014-10-21 23:35 METAR KSHD 220335Z AUTO 35004KT 10SM OVC033 11/06 A2997 RMK AO2 T01120060 =
2014-10-21 23:15 METAR KSHD 220315Z AUTO 36003KT 10SM BKN035 BKN041 OVC055 11/06 A2997 RMK AO2
                 T01130062 =
2014-10-21 22:55 METAR KSHD 220255Z AUTO 35005KT 10SM OVC037 12/06 A2997 RMK AO2 T01150063 =
2014-10-21 22:35 METAR KSHD 220235Z AUTO 00000KT 10SM BKN035 BKN047 OVC050 11/08 A2997 RMK AO2
                 T01120080 =
2014-10-21 22:15 METAR KSHD 220215Z AUTO 00000KT 10SM -DZ BKN037 OVC048 11/08 A2997 RMK AO2
                 T01140080 =
2014-10-21 21:55 METAR KSHD 220155Z AUTO 00000KT 10SM -RA SCT037 OVC048 11/08 A2997 RMK AO2
                 T01140081 =
2014-10-21 21:35 METAR KSHD 220135Z AUTO 00000KT 10SM -RA BKN037 OVC044 11/09 A2996 RMK AO2
                 T01120085 =
2014-10-21 21:15 METAR KSHD 220115Z AUTO 35003KT 10SM OVC042 12/08 A2995 RMK AO2 T01160082 =
2014-10-21 20:55 METAR KSHD 220055Z AUTO 00000KT 10SM BKN046 OVC055 12/09 A2994 RMK AO2 T01150090
                 =
2014-10-21 20:35 METAR KSHD 220035Z AUTO 34003KT 10SM BKN042 OVC049 12/09 A2993 RMK AO2 T01160090
                 =
2014-10-21 20:15 METAR KSHD 220015Z AUTO 02004KT 10SM OVC042 12/09 A2993 RMK AO2 T01160092 =
2014-10-21 19:55 METAR KSHD 212355Z AUTO 02004KT 10SM BKN044 OVC050 12/10 A2993 RMK AO2 T01170095
                 10200 20115 =
2014-10-21 19:35 METAR KSHD 212335Z AUTO 02003KT 10SM OVC050 12/10 A2992 RMK AO2 T01150096 =
2014-10-21 19:15 METAR KSHD 212315Z AUTO 03005KT 10SM OVC050 12/10 A2992 RMK AO2 T01150095 =
2014-10-21 18:55 METAR KSHD 212255Z AUTO 02003KT 10SM DZ BKN055 OVC075 12/10 A2991 RMK AO2
                 T01180095 =
2014-10-21 18:35 METAR KSHD 212235Z AUTO 36003KT 10SM SCT055 OVC075 12/09 A2991 RMK AO2 T01210092
                 =
2014-10-21 18:15 METAR KSHD 212215Z AUTO 26003KT 10SM SCT055 BKN065 OVC080 12/09 A2991 RMK AO2
                 T01190094 =
2014-10-21 17:55 METAR KSHD 212155Z AUTO 00000KT 10SM OVC060 12/09 A2991 RMK AO2 T01200091 =
2014-10-21 17:35 METAR KSHD 212135Z AUTO 00000KT 10SM OVC060 12/09 A2990 RMK AO2 T01210091 =
2014-10-21 17:15 METAR KSHD 212115Z AUTO 36007KT 10SM OVC050 13/09 A2989 RMK AO2 T01260087 =
2014-10-21 16:55 METAR KSHD 212055Z AUTO 33008KT 10SM RA OVC048 13/09 A2989 RMK AO2 T01300085 =
2014-10-21 16:35 METAR KSHD 212035Z AUTO 28010G16KT 10SM BKN048 BKN065 OVC075 14/08 A2988 RMK AO2
                 T01380081 =
2014-10-21 16:15 METAR KSHD 212015Z AUTO 26010G14KT 10SM BKN070 BKN075 OVC090 14/08 A2987 RMK AO2
                 T01410082 =
2014-10-21 15:55 METAR KSHD 211955Z AUTO 26004KT 10SM -DZ SCT050 OVC065 14/09 A2986 RMK AO2
                 T01370093 =
2014-10-21 15:35 METAR KSHD 211935Z AUTO 30007G14KT 10SM -RA BKN050 OVC065 15/08 A2984 RMK AO2
                 T01460081 =
2014-10-21 15:15 METAR KSHD 211915Z AUTO 28012G21KT 10SM BKN050 OVC090 16/06 A2984 RMK AO2
                 T01620062 =
2014-10-21 14:55 METAR KSHD 211855Z AUTO 24008KT 10SM SCT050 BKN090 OVC110 18/06 A2983 RMK AO2
                 T01840059 =
2014-10-21 14:35 METAR KSHD 211835Z AUTO 24008KT 10SM SCT050 SCT090 OVC110 19/06 A2983 RMK AO2
                 T01930061 =
2014-10-21 14:15 METAR KSHD 211815Z AUTO 22011KT 10SM SCT050 SCT070 OVC100 20/06 A2983 RMK AO2
                 T01950061 =
2014-10-21 13:55 METAR KSHD 211755Z AUTO 25008KT 10SM BKN070 OVC085 18/06 A2984 RMK AO2 T01820062
                 10189 20078 =
2014-10-21 13:35 METAR KSHD 211735Z AUTO 24005KT 10SM OVC095 18/06 A2985 RMK AO2 T01800063 =
2014-10-21 13:15 METAR KSHD 211715Z AUTO 24003KT 10SM SCT049 OVC095 18/06 A2986 RMK AO2 T01810063
                 =
2014-10-21 12:55 METAR KSHD 211655Z AUTO 24004KT 10SM OVC095 18/07 A2987 RMK AO2 T01800065 =
2014-10-21 12:35 METAR KSHD 211635Z AUTO 25007KT 10SM BKN095 19/07 A2988 RMK AO2 T01890067 =
2014-10-21 12:15 METAR KSHD 211615Z AUTO 22005KT 10SM SCT041 18/07 A2988 RMK AO2 T01840072 =
2014-10-21 11:55 METAR KSHD 211555Z AUTO 21007KT 10SM SCT041 18/07 A2989 RMK AO2 T01810071 =
2014-10-21 11:35 METAR KSHD 211535Z AUTO 22007KT 10SM CLR 18/08 A2989 RMK AO2 T01770075 =
2014-10-21 11:15 METAR KSHD 211515Z AUTO 26005KT 10SM CLR 17/07 A2990 RMK AO2 T01700067 =
2014-10-21 10:55 METAR KSHD 211455Z AUTO 20006KT 10SM CLR 16/08 A2990 RMK AO2 T01640078 =
2014-10-21 10:35 METAR KSHD 211435Z AUTO 23007KT 10SM CLR 16/08 A2991 RMK AO2 T01610078 =
2014-10-21 10:15 METAR KSHD 211415Z AUTO 24007KT 10SM CLR 16/09 A2991 RMK AO2 T01580086 =
2014-10-21 09:35 METAR KSHD 211335Z AUTO 21003KT 10SM CLR 14/09 A2993 RMK AO2 T01390089 =
2014-10-21 09:15 METAR KSHD 211315Z AUTO 21003KT 10SM CLR 13/09 A2993 RMK AO2 T01270086 =
2014-10-21 08:55 METAR KSHD 211255Z AUTO 00000KT 10SM SCT110 11/08 A2992 RMK AO2 T01070082 =
2014-10-21 08:35 METAR KSHD 211235Z AUTO 00000KT 10SM SCT120 10/07 A2992 RMK AO2 T00980070 =
2014-10-21 08:15 METAR KSHD 211215Z AUTO 00000KT 10SM SCT120 08/06 A2991 RMK AO2 T00820064 =
2014-10-21 07:55 METAR KSHD 211155Z AUTO 19003KT 10SM SCT060 BKN080 BKN120 10/07 A2991 RMK AO2
                 T01010070 10125 20068 =
2014-10-21 07:35 METAR KSHD 211135Z AUTO 00000KT 10SM SCT070 OVC080 09/07 A2991 RMK AO2 T00880065
                 =
2014-10-21 07:15 METAR KSHD 211115Z AUTO 00000KT 10SM OVC070 09/06 A2991 RMK AO2 T00850063 =
2014-10-21 06:55 METAR KSHD 211055Z AUTO 00000KT 10SM BKN080 OVC110 09/07 A2991 RMK AO2 T00900066
                 =
2014-10-21 06:35 METAR KSHD 211035Z AUTO 00000KT 10SM BKN110 08/06 A2991 RMK AO2 T00780057 =
2014-10-21 05:55 METAR KSHD 210955Z AUTO 14003KT 10SM SCT120 08/06 A2990 RMK AO2 T00750058 =
2014-10-21 05:35 METAR KSHD 210935Z AUTO 00000KT 10SM CLR 08/06 A2990 RMK AO2 T00840057 =
2014-10-21 05:15 METAR KSHD 210915Z AUTO 00000KT 10SM CLR 09/07 A2991 RMK AO2 T00860065 =
2014-10-21 04:55 METAR KSHD 210855Z AUTO 00000KT 10SM CLR 09/06 A2990 RMK AO2 T00850062 =
2014-10-21 04:35 METAR KSHD 210835Z AUTO 00000KT 10SM CLR 10/07 A2990 RMK AO2 T01000070 =
2014-10-21 04:15 METAR KSHD 210815Z AUTO 00000KT 10SM CLR 10/06 A2990 RMK AO2 T00960062 =
2014-10-21 03:55 METAR KSHD 210755Z AUTO 00000KT 10SM CLR 10/06 A2991 RMK AO2 T00950064 =
2014-10-21 03:35 METAR KSHD 210735Z AUTO 00000KT 10SM SCT110 10/07 A2991 RMK AO2 T00980072 =
2014-10-21 03:15 METAR KSHD 210715Z AUTO 22004KT 10SM SCT110 10/07 A2991 RMK AO2 T00980070 =
2014-10-21 02:55 METAR KSHD 210655Z AUTO 16004KT 10SM SCT110 11/08 A2992 RMK AO2 T01110076 =
2014-10-21 02:35 METAR KSHD 210635Z AUTO 23003KT 10SM SCT090 BKN110 11/08 A2992 RMK AO2 T01110077
                 =
2014-10-21 02:15 METAR KSHD 210615Z AUTO 22004KT 10SM BKN100 OVC110 12/08 A2992 RMK AO2 T01230082
                 =
2014-10-21 01:55 METAR KSHD 210555Z AUTO 21004KT 10SM SCT046 OVC100 12/09 A2993 RMK AO2 T01220085
                 10162 20122 402010000 =
2014-10-21 01:35 METAR KSHD 210535Z AUTO 24003KT 10SM SCT046 SCT075 OVC100 13/09 A2993 RMK AO2
                 T01250086 =
2014-10-21 01:15 METAR KSHD 210515Z AUTO 22004KT 10SM OVC100 13/09 A2993 RMK AO2 LTG DSNT W
                 T01260086 =
2014-10-21 00:55 METAR KSHD 210455Z AUTO 20005KT 10SM OVC100 13/09 A2993 RMK AO2 T01320086 =

Support USWX by starting your Amazon purchase here.